sensor_id;sensor_type;location;lat;lon;timestamp;P1;durP1;ratioP1;P2;durP2;ratioP2
2147;SDS011;1080;48.724;9.104;2022-10-31T00:01:50;5.37;;;2.40;;
2147;SDS011;1080;48.724;9.104;2022-10-31T00:04:18;2.67;;;2.30;;
2147;SDS011;1080;48.724;9.104;2022-10-31T00:06:45;11.77;;;2.50;;
2147;SDS011;1080;48.724;9.104;2022-10-31T00:09:12;7.93;;;2.40;;
2147;SDS011;1080;48.724;9.104;2022-10-31T00:11:39;7.10;;;2.57;;
2147;SDS011;1080;48.724;9.104;2022-10-31T00:14:06;3.70;;;2.13;;
2147;SDS011;1080;48.724;9.104;2022-10-31T00:16:35;6.90;;;2.73;;
2147;SDS011;1080;48.724;9.104;2022-10-31T00:19:03;8.27;;;2.77;;
2147;SDS011;1080;48.724;9.104;2022-10-31T00:21:32;4.83;;;2.40;;
2147;SDS011;1080;48.724;9.104;2022-10-31T00:23:59;3.33;;;2.40;;
2147;SDS011;1080;48.724;9.104;2022-10-31T00:26:27;4.20;;;2.23;;
2147;SDS011;1080;48.724;9.104;2022-10-31T00:28:54;4.23;;;2.77;;
2147;SDS011;1080;48.724;9.104;2022-10-31T00:31:21;5.37;;;2.70;;
2147;SDS011;1080;48.724;9.104;2022-10-31T00:33:50;3.80;;;2.90;;
2147;SDS011;1080;48.724;9.104;2022-10-31T00:36:17;7.93;;;2.90;;
2147;SDS011;1080;48.724;9.104;2022-10-31T00:38:45;8.10;;;3.07;;
2147;SDS011;1080;48.724;9.104;2022-10-31T00:41:13;6.77;;;2.60;;
2147;SDS011;1080;48.724;9.104;2022-10-31T00:43:41;3.67;;;2.37;;
2147;SDS011;1080;48.724;9.104;2022-10-31T00:46:09;7.07;;;2.80;;
2147;SDS011;1080;48.724;9.104;2022-10-31T00:48:36;3.50;;;2.40;;
2147;SDS011;1080;48.724;9.104;2022-10-31T00:51:04;5.30;;;3.03;;
2147;SDS011;1080;48.724;9.104;2022-10-31T00:53:32;3.87;;;2.60;;
2147;SDS011;1080;48.724;9.104;2022-10-31T00:55:59;5.13;;;2.43;;
2147;SDS011;1080;48.724;9.104;2022-10-31T00:58:26;2.57;;;2.20;;
2147;SDS011;1080;48.724;9.104;2022-10-31T01:00:53;3.33;;;2.47;;
2147;SDS011;1080;48.724;9.104;2022-10-31T01:03:21;6.87;;;3.10;;
2147;SDS011;1080;48.724;9.104;2022-10-31T01:05:55;5.97;;;2.80;;
2147;SDS011;1080;48.724;9.104;2022-10-31T01:08:24;5.57;;;2.60;;
2147;SDS011;1080;48.724;9.104;2022-10-31T01:11:01;3.40;;;2.57;;
2147;SDS011;1080;48.724;9.104;2022-10-31T01:13:29;4.50;;;2.10;;
2147;SDS011;1080;48.724;9.104;2022-10-31T01:15:56;4.50;;;2.30;;
2147;SDS011;1080;48.724;9.104;2022-10-31T01:18:24;4.20;;;2.90;;
2147;SDS011;1080;48.724;9.104;2022-10-31T01:20:59;7.60;;;2.63;;
2147;SDS011;1080;48.724;9.104;2022-10-31T01:23:28;6.00;;;2.40;;
2147;SDS011;1080;48.724;9.104;2022-10-31T01:25:59;4.23;;;2.70;;
2147;SDS011;1080;48.724;9.104;2022-10-31T01:28:31;5.73;;;2.60;;
2147;SDS011;1080;48.724;9.104;2022-10-31T01:31:02;5.40;;;2.50;;
2147;SDS011;1080;48.724;9.104;2022-10-31T01:33:30;7.60;;;2.63;;
2147;SDS011;1080;48.724;9.104;2022-10-31T01:35:57;7.07;;;3.03;;
2147;SDS011;1080;48.724;9.104;2022-10-31T01:38:25;4.80;;;2.77;;
2147;SDS011;1080;48.724;9.104;2022-10-31T01:40:53;2.50;;;2.30;;
2147;SDS011;1080;48.724;9.104;2022-10-31T01:43:20;5.40;;;2.43;;
2147;SDS011;1080;48.724;9.104;2022-10-31T01:45:49;5.00;;;2.27;;
2147;SDS011;1080;48.724;9.104;2022-10-31T01:48:19;5.00;;;2.90;;
2147;SDS011;1080;48.724;9.104;2022-10-31T01:50:50;3.53;;;2.60;;
2147;SDS011;1080;48.724;9.104;2022-10-31T01:53:20;7.90;;;2.53;;
2147;SDS011;1080;48.724;9.104;2022-10-31T01:55:47;4.50;;;2.33;;
2147;SDS011;1080;48.724;9.104;2022-10-31T01:58:16;4.90;;;2.50;;
2147;SDS011;1080;48.724;9.104;2022-10-31T02:00:48;4.10;;;2.30;;
2147;SDS011;1080;48.724;9.104;2022-10-31T02:03:18;4.27;;;2.23;;
2147;SDS011;1080;48.724;9.104;2022-10-31T02:05:48;3.83;;;2.67;;
2147;SDS011;1080;48.724;9.104;2022-10-31T02:08:16;6.30;;;2.30;;
2147;SDS011;1080;48.724;9.104;2022-10-31T02:10:47;5.23;;;2.83;;
2147;SDS011;1080;48.724;9.104;2022-10-31T02:13:16;7.13;;;2.90;;
2147;SDS011;1080;48.724;9.104;2022-10-31T02:15:44;3.07;;;2.47;;
2147;SDS011;1080;48.724;9.104;2022-10-31T02:18:12;5.43;;;2.40;;
2147;SDS011;1080;48.724;9.104;2022-10-31T02:20:41;6.27;;;2.40;;
2147;SDS011;1080;48.724;9.104;2022-10-31T02:23:23;4.60;;;2.80;;
2147;SDS011;1080;48.724;9.104;2022-10-31T02:26:16;4.50;;;2.37;;
2147;SDS011;1080;48.724;9.104;2022-10-31T02:29:00;8.20;;;3.43;;
2147;SDS011;1080;48.724;9.104;2022-10-31T02:31:39;3.60;;;2.57;;
2147;SDS011;1080;48.724;9.104;2022-10-31T02:34:14;6.60;;;2.63;;
2147;SDS011;1080;48.724;9.104;2022-10-31T02:36:47;3.60;;;2.20;;
2147;SDS011;1080;48.724;9.104;2022-10-31T02:39:22;5.77;;;2.80;;
2147;SDS011;1080;48.724;9.104;2022-10-31T02:41:52;6.10;;;2.63;;
2147;SDS011;1080;48.724;9.104;2022-10-31T02:44:28;9.03;;;2.93;;
2147;SDS011;1080;48.724;9.104;2022-10-31T02:47:02;5.83;;;2.47;;
2147;SDS011;1080;48.724;9.104;2022-10-31T02:49:32;4.40;;;2.77;;
2147;SDS011;1080;48.724;9.104;2022-10-31T02:52:12;5.33;;;2.90;;
2147;SDS011;1080;48.724;9.104;2022-10-31T02:54:40;6.70;;;3.07;;
2147;SDS011;1080;48.724;9.104;2022-10-31T02:57:08;8.60;;;3.20;;
2147;SDS011;1080;48.724;9.104;2022-10-31T02:59:35;5.93;;;2.87;;
2147;SDS011;1080;48.724;9.104;2022-10-31T03:02:08;2.53;;;2.10;;
2147;SDS011;1080;48.724;9.104;2022-10-31T03:07:53;4.90;;;2.67;;
2147;SDS011;1080;48.724;9.104;2022-10-31T03:10:27;3.77;;;2.70;;
2147;SDS011;1080;48.724;9.104;2022-10-31T03:13:01;5.23;;;2.53;;
2147;SDS011;1080;48.724;9.104;2022-10-31T03:15:33;5.50;;;2.10;;
2147;SDS011;1080;48.724;9.104;2022-10-31T03:18:06;5.20;;;2.10;;
2147;SDS011;1080;48.724;9.104;2022-10-31T03:20:36;3.77;;;2.60;;
2147;SDS011;1080;48.724;9.104;2022-10-31T03:23:05;3.10;;;2.57;;
2147;SDS011;1080;48.724;9.104;2022-10-31T03:25:36;5.63;;;2.50;;
2147;SDS011;1080;48.724;9.104;2022-10-31T03:28:05;5.70;;;2.90;;
2147;SDS011;1080;48.724;9.104;2022-10-31T03:30:35;4.00;;;2.23;;
2147;SDS011;1080;48.724;9.104;2022-10-31T03:33:09;4.43;;;3.07;;
2147;SDS011;1080;48.724;9.104;2022-10-31T03:35:39;3.43;;;2.50;;
2147;SDS011;1080;48.724;9.104;2022-10-31T03:38:10;4.27;;;2.83;;
2147;SDS011;1080;48.724;9.104;2022-10-31T03:40:38;6.50;;;2.77;;
2147;SDS011;1080;48.724;9.104;2022-10-31T03:43:09;5.40;;;3.30;;
2147;SDS011;1080;48.724;9.104;2022-10-31T03:45:40;10.27;;;3.13;;
2147;SDS011;1080;48.724;9.104;2022-10-31T03:48:11;3.87;;;2.33;;
2147;SDS011;1080;48.724;9.104;2022-10-31T03:50:40;4.70;;;2.87;;
2147;SDS011;1080;48.724;9.104;2022-10-31T03:53:16;6.87;;;2.70;;
2147;SDS011;1080;48.724;9.104;2022-10-31T03:55:50;3.30;;;2.47;;
2147;SDS011;1080;48.724;9.104;2022-10-31T03:58:24;2.43;;;2.20;;
2147;SDS011;1080;48.724;9.104;2022-10-31T04:00:56;6.30;;;2.70;;
2147;SDS011;1080;48.724;9.104;2022-10-31T04:03:27;8.10;;;2.87;;
2147;SDS011;1080;48.724;9.104;2022-10-31T04:05:58;6.43;;;3.60;;
2147;SDS011;1080;48.724;9.104;2022-10-31T04:08:29;4.70;;;2.70;;
2147;SDS011;1080;48.724;9.104;2022-10-31T04:10:59;3.73;;;2.80;;
2147;SDS011;1080;48.724;9.104;2022-10-31T04:13:29;6.70;;;3.10;;
2147;SDS011;1080;48.724;9.104;2022-10-31T04:16:00;4.63;;;3.00;;
2147;SDS011;1080;48.724;9.104;2022-10-31T04:18:29;3.00;;;2.70;;
2147;SDS011;1080;48.724;9.104;2022-10-31T04:20:59;2.90;;;2.60;;
2147;SDS011;1080;48.724;9.104;2022-10-31T04:23:27;4.67;;;2.60;;
2147;SDS011;1080;48.724;9.104;2022-10-31T04:25:55;3.90;;;2.67;;
2147;SDS011;1080;48.724;9.104;2022-10-31T04:28:22;5.70;;;3.00;;
2147;SDS011;1080;48.724;9.104;2022-10-31T04:30:49;3.33;;;2.80;;
2147;SDS011;1080;48.724;9.104;2022-10-31T04:33:16;4.83;;;3.10;;
2147;SDS011;1080;48.724;9.104;2022-10-31T04:35:45;5.70;;;2.80;;
2147;SDS011;1080;48.724;9.104;2022-10-31T04:38:12;3.73;;;2.40;;
2147;SDS011;1080;48.724;9.104;2022-10-31T04:40:39;4.87;;;3.40;;
2147;SDS011;1080;48.724;9.104;2022-10-31T04:43:07;10.27;;;3.70;;
2147;SDS011;1080;48.724;9.104;2022-10-31T04:45:34;3.70;;;2.60;;
2147;SDS011;1080;48.724;9.104;2022-10-31T04:48:01;5.47;;;3.37;;
2147;SDS011;1080;48.724;9.104;2022-10-31T04:50:28;5.60;;;3.27;;
2147;SDS011;1080;48.724;9.104;2022-10-31T04:52:57;4.47;;;2.93;;
2147;SDS011;1080;48.724;9.104;2022-10-31T04:55:24;4.73;;;2.73;;
2147;SDS011;1080;48.724;9.104;2022-10-31T04:57:51;5.07;;;2.87;;
2147;SDS011;1080;48.724;9.104;2022-10-31T05:00:19;6.40;;;3.40;;
2147;SDS011;1080;48.724;9.104;2022-10-31T05:02:47;5.17;;;3.47;;
2147;SDS011;1080;48.724;9.104;2022-10-31T05:05:15;3.30;;;2.90;;
2147;SDS011;1080;48.724;9.104;2022-10-31T05:07:44;4.30;;;3.20;;
2147;SDS011;1080;48.724;9.104;2022-10-31T05:10:14;6.30;;;3.17;;
2147;SDS011;1080;48.724;9.104;2022-10-31T05:12:45;3.70;;;2.67;;
2147;SDS011;1080;48.724;9.104;2022-10-31T05:15:13;5.77;;;2.97;;
2147;SDS011;1080;48.724;9.104;2022-10-31T05:17:41;3.63;;;2.97;;
2147;SDS011;1080;48.724;9.104;2022-10-31T05:20:09;5.17;;;3.23;;
2147;SDS011;1080;48.724;9.104;2022-10-31T05:22:36;5.53;;;3.07;;
2147;SDS011;1080;48.724;9.104;2022-10-31T05:25:03;3.50;;;2.87;;
2147;SDS011;1080;48.724;9.104;2022-10-31T05:27:32;5.60;;;3.10;;
2147;SDS011;1080;48.724;9.104;2022-10-31T05:29:59;5.00;;;2.90;;
2147;SDS011;1080;48.724;9.104;2022-10-31T05:32:26;4.87;;;3.10;;
2147;SDS011;1080;48.724;9.104;2022-10-31T05:34:54;8.50;;;3.30;;
2147;SDS011;1080;48.724;9.104;2022-10-31T05:37:22;4.37;;;3.10;;
2147;SDS011;1080;48.724;9.104;2022-10-31T05:39:49;3.77;;;3.00;;
2147;SDS011;1080;48.724;9.104;2022-10-31T05:42:16;3.33;;;2.67;;
2147;SDS011;1080;48.724;9.104;2022-10-31T05:44:44;5.20;;;3.20;;
2147;SDS011;1080;48.724;9.104;2022-10-31T05:47:11;4.47;;;3.00;;
2147;SDS011;1080;48.724;9.104;2022-10-31T05:49:38;4.30;;;3.03;;
2147;SDS011;1080;48.724;9.104;2022-10-31T05:52:05;5.30;;;3.47;;
2147;SDS011;1080;48.724;9.104;2022-10-31T05:54:32;6.43;;;3.00;;
2147;SDS011;1080;48.724;9.104;2022-10-31T05:56:59;3.73;;;2.80;;
2147;SDS011;1080;48.724;9.104;2022-10-31T05:59:26;7.47;;;3.10;;
2147;SDS011;1080;48.724;9.104;2022-10-31T06:01:55;4.70;;;2.90;;
2147;SDS011;1080;48.724;9.104;2022-10-31T06:04:22;3.97;;;3.10;;
2147;SDS011;1080;48.724;9.104;2022-10-31T06:06:49;3.20;;;2.90;;
2147;SDS011;1080;48.724;9.104;2022-10-31T06:09:16;4.70;;;3.10;;
2147;SDS011;1080;48.724;9.104;2022-10-31T06:11:43;4.47;;;3.50;;
2147;SDS011;1080;48.724;9.104;2022-10-31T06:14:10;8.53;;;4.00;;
2147;SDS011;1080;48.724;9.104;2022-10-31T06:16:37;6.20;;;3.43;;
2147;SDS011;1080;48.724;9.104;2022-10-31T06:19:06;4.13;;;2.97;;
2147;SDS011;1080;48.724;9.104;2022-10-31T06:21:33;7.50;;;3.00;;
2147;SDS011;1080;48.724;9.104;2022-10-31T06:24:00;4.17;;;2.73;;
2147;SDS011;1080;48.724;9.104;2022-10-31T06:26:27;6.03;;;3.20;;
2147;SDS011;1080;48.724;9.104;2022-10-31T06:28:54;3.87;;;2.83;;
2147;SDS011;1080;48.724;9.104;2022-10-31T06:31:21;5.50;;;2.97;;
2147;SDS011;1080;48.724;9.104;2022-10-31T06:33:48;7.20;;;3.37;;
2147;SDS011;1080;48.724;9.104;2022-10-31T06:36:17;6.20;;;2.77;;
2147;SDS011;1080;48.724;9.104;2022-10-31T06:38:44;18.17;;;4.67;;
2147;SDS011;1080;48.724;9.104;2022-10-31T06:41:11;9.20;;;3.90;;
2147;SDS011;1080;48.724;9.104;2022-10-31T06:43:39;22.93;;;4.17;;
2147;SDS011;1080;48.724;9.104;2022-10-31T06:46:06;14.33;;;4.90;;
2147;SDS011;1080;48.724;9.104;2022-10-31T06:48:33;21.00;;;4.90;;
2147;SDS011;1080;48.724;9.104;2022-10-31T06:51:00;31.37;;;6.20;;
2147;SDS011;1080;48.724;9.104;2022-10-31T06:53:29;19.83;;;5.33;;
2147;SDS011;1080;48.724;9.104;2022-10-31T06:55:56;34.10;;;6.37;;
2147;SDS011;1080;48.724;9.104;2022-10-31T06:58:23;35.33;;;7.57;;
2147;SDS011;1080;48.724;9.104;2022-10-31T07:00:50;27.40;;;5.87;;
2147;SDS011;1080;48.724;9.104;2022-10-31T07:03:18;17.70;;;5.27;;
2147;SDS011;1080;48.724;9.104;2022-10-31T07:05:45;31.60;;;6.13;;
2147;SDS011;1080;48.724;9.104;2022-10-31T07:08:13;25.83;;;5.70;;
2147;SDS011;1080;48.724;9.104;2022-10-31T07:10:42;12.67;;;4.70;;
2147;SDS011;1080;48.724;9.104;2022-10-31T07:13:11;14.03;;;4.93;;
2147;SDS011;1080;48.724;9.104;2022-10-31T07:15:40;9.33;;;4.20;;
2147;SDS011;1080;48.724;9.104;2022-10-31T07:18:08;15.37;;;6.37;;
2147;SDS011;1080;48.724;9.104;2022-10-31T07:20:36;8.70;;;4.37;;
2147;SDS011;1080;48.724;9.104;2022-10-31T07:23:04;10.33;;;4.23;;
2147;SDS011;1080;48.724;9.104;2022-10-31T07:25:31;9.40;;;3.67;;
2147;SDS011;1080;48.724;9.104;2022-10-31T07:27:59;9.80;;;4.10;;
2147;SDS011;1080;48.724;9.104;2022-10-31T07:30:26;9.80;;;4.60;;
2147;SDS011;1080;48.724;9.104;2022-10-31T07:32:53;16.07;;;4.67;;
2147;SDS011;1080;48.724;9.104;2022-10-31T07:35:21;14.30;;;4.50;;
2147;SDS011;1080;48.724;9.104;2022-10-31T07:37:49;9.67;;;4.80;;
2147;SDS011;1080;48.724;9.104;2022-10-31T07:40:16;10.67;;;6.20;;
2147;SDS011;1080;48.724;9.104;2022-10-31T07:42:44;10.10;;;5.60;;
2147;SDS011;1080;48.724;9.104;2022-10-31T07:45:14;7.90;;;4.60;;
2147;SDS011;1080;48.724;9.104;2022-10-31T07:47:42;15.10;;;4.40;;
2147;SDS011;1080;48.724;9.104;2022-10-31T07:50:12;14.10;;;5.50;;
2147;SDS011;1080;48.724;9.104;2022-10-31T07:52:40;17.33;;;5.77;;
2147;SDS011;1080;48.724;9.104;2022-10-31T07:55:08;9.13;;;4.60;;
2147;SDS011;1080;48.724;9.104;2022-10-31T07:57:35;13.57;;;4.70;;
2147;SDS011;1080;48.724;9.104;2022-10-31T08:00:02;7.73;;;4.70;;
2147;SDS011;1080;48.724;9.104;2022-10-31T08:02:31;8.40;;;3.90;;
2147;SDS011;1080;48.724;9.104;2022-10-31T08:04:58;6.03;;;3.93;;
2147;SDS011;1080;48.724;9.104;2022-10-31T08:07:27;8.73;;;4.97;;
2147;SDS011;1080;48.724;9.104;2022-10-31T08:09:54;11.57;;;4.33;;
2147;SDS011;1080;48.724;9.104;2022-10-31T08:12:21;7.80;;;4.00;;
2147;SDS011;1080;48.724;9.104;2022-10-31T08:14:48;5.90;;;4.37;;
2147;SDS011;1080;48.724;9.104;2022-10-31T08:17:16;12.40;;;4.50;;
2147;SDS011;1080;48.724;9.104;2022-10-31T08:19:44;13.13;;;4.43;;
2147;SDS011;1080;48.724;9.104;2022-10-31T08:22:11;6.67;;;4.97;;
2147;SDS011;1080;48.724;9.104;2022-10-31T08:24:38;9.10;;;4.33;;
2147;SDS011;1080;48.724;9.104;2022-10-31T08:27:05;19.23;;;5.00;;
2147;SDS011;1080;48.724;9.104;2022-10-31T08:29:32;20.00;;;5.93;;
2147;SDS011;1080;48.724;9.104;2022-10-31T08:31:59;22.97;;;7.07;;
2147;SDS011;1080;48.724;9.104;2022-10-31T08:34:26;25.93;;;7.47;;
2147;SDS011;1080;48.724;9.104;2022-10-31T08:36:54;41.13;;;7.60;;
2147;SDS011;1080;48.724;9.104;2022-10-31T08:39:22;21.03;;;6.80;;
2147;SDS011;1080;48.724;9.104;2022-10-31T08:41:49;22.87;;;8.13;;
2147;SDS011;1080;48.724;9.104;2022-10-31T08:44:16;25.63;;;7.73;;
2147;SDS011;1080;48.724;9.104;2022-10-31T08:46:43;31.63;;;7.50;;
2147;SDS011;1080;48.724;9.104;2022-10-31T08:49:10;20.27;;;5.57;;
2147;SDS011;1080;48.724;9.104;2022-10-31T08:51:37;7.43;;;4.63;;
2147;SDS011;1080;48.724;9.104;2022-10-31T08:54:06;10.70;;;4.70;;
2147;SDS011;1080;48.724;9.104;2022-10-31T08:56:33;7.50;;;4.63;;
2147;SDS011;1080;48.724;9.104;2022-10-31T08:59:00;8.50;;;4.70;;
2147;SDS011;1080;48.724;9.104;2022-10-31T09:01:27;10.73;;;3.80;;
2147;SDS011;1080;48.724;9.104;2022-10-31T09:03:54;12.50;;;5.50;;
2147;SDS011;1080;48.724;9.104;2022-10-31T09:06:21;8.40;;;5.60;;
2147;SDS011;1080;48.724;9.104;2022-10-31T09:08:48;8.27;;;5.03;;
2147;SDS011;1080;48.724;9.104;2022-10-31T09:11:17;11.20;;;4.70;;
2147;SDS011;1080;48.724;9.104;2022-10-31T09:13:44;9.60;;;4.93;;
2147;SDS011;1080;48.724;9.104;2022-10-31T09:16:11;8.83;;;5.07;;
2147;SDS011;1080;48.724;9.104;2022-10-31T09:18:38;7.83;;;3.77;;
2147;SDS011;1080;48.724;9.104;2022-10-31T09:21:05;10.50;;;5.03;;
2147;SDS011;1080;48.724;9.104;2022-10-31T09:23:32;9.27;;;4.63;;
2147;SDS011;1080;48.724;9.104;2022-10-31T09:26:00;9.60;;;5.20;;
2147;SDS011;1080;48.724;9.104;2022-10-31T09:28:28;13.03;;;5.83;;
2147;SDS011;1080;48.724;9.104;2022-10-31T09:30:56;9.47;;;4.97;;
2147;SDS011;1080;48.724;9.104;2022-10-31T09:33:23;13.97;;;4.87;;
2147;SDS011;1080;48.724;9.104;2022-10-31T09:35:50;10.20;;;4.73;;
2147;SDS011;1080;48.724;9.104;2022-10-31T09:38:19;8.63;;;4.67;;
2147;SDS011;1080;48.724;9.104;2022-10-31T09:40:48;7.97;;;4.07;;
2147;SDS011;1080;48.724;9.104;2022-10-31T09:43:22;9.07;;;4.93;;
2147;SDS011;1080;48.724;9.104;2022-10-31T09:45:59;6.40;;;4.50;;
2147;SDS011;1080;48.724;9.104;2022-10-31T09:51:29;6.03;;;4.30;;
2147;SDS011;1080;48.724;9.104;2022-10-31T09:53:59;6.70;;;3.97;;
2147;SDS011;1080;48.724;9.104;2022-10-31T09:56:31;10.90;;;4.30;;
2147;SDS011;1080;48.724;9.104;2022-10-31T09:59:00;5.47;;;4.70;;
2147;SDS011;1080;48.724;9.104;2022-10-31T10:01:32;8.73;;;4.10;;
2147;SDS011;1080;48.724;9.104;2022-10-31T10:04:10;7.27;;;4.63;;
2147;SDS011;1080;48.724;9.104;2022-10-31T10:06:54;9.60;;;5.13;;
2147;SDS011;1080;48.724;9.104;2022-10-31T10:09:22;9.97;;;5.07;;
2147;SDS011;1080;48.724;9.104;2022-10-31T10:11:55;11.20;;;4.87;;
2147;SDS011;1080;48.724;9.104;2022-10-31T10:14:33;9.83;;;5.30;;
2147;SDS011;1080;48.724;9.104;2022-10-31T10:17:18;10.50;;;5.00;;
2147;SDS011;1080;48.724;9.104;2022-10-31T10:19:56;9.23;;;4.73;;
2147;SDS011;1080;48.724;9.104;2022-10-31T10:22:38;13.97;;;5.37;;
2147;SDS011;1080;48.724;9.104;2022-10-31T10:25:14;15.77;;;5.30;;
2147;SDS011;1080;48.724;9.104;2022-10-31T10:27:49;11.90;;;5.03;;
2147;SDS011;1080;48.724;9.104;2022-10-31T10:30:33;12.70;;;4.50;;
2147;SDS011;1080;48.724;9.104;2022-10-31T10:33:09;7.03;;;5.37;;
2147;SDS011;1080;48.724;9.104;2022-10-31T10:35:39;7.67;;;5.03;;
2147;SDS011;1080;48.724;9.104;2022-10-31T10:38:11;10.30;;;5.90;;
2147;SDS011;1080;48.724;9.104;2022-10-31T10:40:44;11.77;;;5.27;;
2147;SDS011;1080;48.724;9.104;2022-10-31T10:43:22;7.60;;;3.90;;
2147;SDS011;1080;48.724;9.104;2022-10-31T10:45:59;15.53;;;4.27;;
2147;SDS011;1080;48.724;9.104;2022-10-31T10:48:58;6.40;;;4.40;;
2147;SDS011;1080;48.724;9.104;2022-10-31T10:51:31;8.60;;;4.77;;
2147;SDS011;1080;48.724;9.104;2022-10-31T10:54:09;9.43;;;5.20;;
2147;SDS011;1080;48.724;9.104;2022-10-31T10:56:50;7.57;;;4.70;;
2147;SDS011;1080;48.724;9.104;2022-10-31T10:59:24;13.43;;;4.90;;
2147;SDS011;1080;48.724;9.104;2022-10-31T11:01:52;8.17;;;4.90;;
2147;SDS011;1080;48.724;9.104;2022-10-31T11:04:31;7.43;;;5.03;;
2147;SDS011;1080;48.724;9.104;2022-10-31T11:07:00;5.10;;;4.23;;
2147;SDS011;1080;48.724;9.104;2022-10-31T11:09:28;6.27;;;4.80;;
2147;SDS011;1080;48.724;9.104;2022-10-31T11:11:56;6.83;;;5.00;;
2147;SDS011;1080;48.724;9.104;2022-10-31T11:14:23;10.03;;;4.90;;
2147;SDS011;1080;48.724;9.104;2022-10-31T11:16:52;10.23;;;5.67;;
2147;SDS011;1080;48.724;9.104;2022-10-31T11:19:23;11.73;;;5.63;;
2147;SDS011;1080;48.724;9.104;2022-10-31T11:21:52;9.97;;;5.10;;
2147;SDS011;1080;48.724;9.104;2022-10-31T11:24:20;7.60;;;5.07;;
2147;SDS011;1080;48.724;9.104;2022-10-31T11:26:51;11.60;;;6.07;;
2147;SDS011;1080;48.724;9.104;2022-10-31T11:29:20;6.30;;;5.30;;
2147;SDS011;1080;48.724;9.104;2022-10-31T11:31:50;8.83;;;5.33;;
2147;SDS011;1080;48.724;9.104;2022-10-31T11:34:22;6.77;;;4.90;;
2147;SDS011;1080;48.724;9.104;2022-10-31T11:36:56;9.50;;;5.77;;
2147;SDS011;1080;48.724;9.104;2022-10-31T11:39:29;10.90;;;6.60;;
2147;SDS011;1080;48.724;9.104;2022-10-31T11:41:59;7.60;;;5.47;;
2147;SDS011;1080;48.724;9.104;2022-10-31T11:44:28;8.27;;;5.33;;
2147;SDS011;1080;48.724;9.104;2022-10-31T11:46:58;10.10;;;6.40;;
2147;SDS011;1080;48.724;9.104;2022-10-31T11:49:28;9.70;;;5.80;;
2147;SDS011;1080;48.724;9.104;2022-10-31T11:51:59;10.67;;;5.47;;
2147;SDS011;1080;48.724;9.104;2022-10-31T11:54:30;7.97;;;5.30;;
2147;SDS011;1080;48.724;9.104;2022-10-31T11:57:01;10.27;;;5.23;;
2147;SDS011;1080;48.724;9.104;2022-10-31T11:59:29;12.73;;;6.80;;
2147;SDS011;1080;48.724;9.104;2022-10-31T12:01:58;5.57;;;5.07;;
2147;SDS011;1080;48.724;9.104;2022-10-31T12:04:31;6.13;;;5.53;;
2147;SDS011;1080;48.724;9.104;2022-10-31T12:07:06;9.27;;;6.00;;
2147;SDS011;1080;48.724;9.104;2022-10-31T12:09:33;8.60;;;5.67;;
2147;SDS011;1080;48.724;9.104;2022-10-31T12:12:05;9.10;;;6.20;;
2147;SDS011;1080;48.724;9.104;2022-10-31T12:14:55;12.83;;;6.57;;
2147;SDS011;1080;48.724;9.104;2022-10-31T12:17:32;13.33;;;6.17;;
2147;SDS011;1080;48.724;9.104;2022-10-31T12:20:07;6.93;;;5.30;;
2147;SDS011;1080;48.724;9.104;2022-10-31T12:22:45;14.03;;;5.73;;
2147;SDS011;1080;48.724;9.104;2022-10-31T12:25:25;10.33;;;6.20;;
2147;SDS011;1080;48.724;9.104;2022-10-31T12:28:00;10.00;;;6.03;;
2147;SDS011;1080;48.724;9.104;2022-10-31T12:30:40;17.30;;;6.73;;
2147;SDS011;1080;48.724;9.104;2022-10-31T12:33:21;7.30;;;5.50;;
2147;SDS011;1080;48.724;9.104;2022-10-31T12:36:11;8.00;;;5.23;;
2147;SDS011;1080;48.724;9.104;2022-10-31T12:41:50;9.10;;;5.40;;
2147;SDS011;1080;48.724;9.104;2022-10-31T12:44:27;8.10;;;5.53;;
2147;SDS011;1080;48.724;9.104;2022-10-31T12:47:12;15.30;;;5.63;;
2147;SDS011;1080;48.724;9.104;2022-10-31T12:49:53;8.30;;;5.40;;
2147;SDS011;1080;48.724;9.104;2022-10-31T12:52:33;10.40;;;5.37;;
2147;SDS011;1080;48.724;9.104;2022-10-31T12:55:10;10.33;;;6.10;;
2147;SDS011;1080;48.724;9.104;2022-10-31T12:57:50;9.40;;;4.93;;
2147;SDS011;1080;48.724;9.104;2022-10-31T13:00:20;12.97;;;5.57;;
2147;SDS011;1080;48.724;9.104;2022-10-31T13:02:49;13.20;;;6.10;;
2147;SDS011;1080;48.724;9.104;2022-10-31T13:05:19;8.27;;;5.77;;
2147;SDS011;1080;48.724;9.104;2022-10-31T13:07:54;7.63;;;5.50;;
2147;SDS011;1080;48.724;9.104;2022-10-31T13:10:25;7.50;;;5.10;;
2147;SDS011;1080;48.724;9.104;2022-10-31T13:13:00;9.83;;;5.97;;
2147;SDS011;1080;48.724;9.104;2022-10-31T13:15:32;8.60;;;7.23;;
2147;SDS011;1080;48.724;9.104;2022-10-31T13:18:06;8.70;;;5.97;;
2147;SDS011;1080;48.724;9.104;2022-10-31T13:20:40;9.80;;;5.70;;
2147;SDS011;1080;48.724;9.104;2022-10-31T13:23:10;13.70;;;6.17;;
2147;SDS011;1080;48.724;9.104;2022-10-31T13:25:44;10.17;;;5.33;;
2147;SDS011;1080;48.724;9.104;2022-10-31T13:28:19;7.67;;;5.47;;
2147;SDS011;1080;48.724;9.104;2022-10-31T13:30:55;7.30;;;5.37;;
2147;SDS011;1080;48.724;9.104;2022-10-31T13:33:23;10.00;;;5.57;;
2147;SDS011;1080;48.724;9.104;2022-10-31T13:35:55;9.87;;;5.40;;
2147;SDS011;1080;48.724;9.104;2022-10-31T13:38:33;9.23;;;5.00;;
2147;SDS011;1080;48.724;9.104;2022-10-31T13:41:04;12.33;;;5.60;;
2147;SDS011;1080;48.724;9.104;2022-10-31T13:43:53;8.27;;;5.23;;
2147;SDS011;1080;48.724;9.104;2022-10-31T13:46:34;18.17;;;5.50;;
2147;SDS011;1080;48.724;9.104;2022-10-31T13:49:02;9.70;;;5.77;;
2147;SDS011;1080;48.724;9.104;2022-10-31T13:51:30;7.50;;;5.50;;
2147;SDS011;1080;48.724;9.104;2022-10-31T13:53:59;12.53;;;5.60;;
2147;SDS011;1080;48.724;9.104;2022-10-31T13:56:28;5.50;;;5.00;;
2147;SDS011;1080;48.724;9.104;2022-10-31T13:58:59;9.13;;;5.07;;
2147;SDS011;1080;48.724;9.104;2022-10-31T14:01:31;11.17;;;5.60;;
2147;SDS011;1080;48.724;9.104;2022-10-31T14:04:00;6.90;;;5.30;;
2147;SDS011;1080;48.724;9.104;2022-10-31T14:06:44;14.20;;;5.77;;
2147;SDS011;1080;48.724;9.104;2022-10-31T14:09:22;5.87;;;4.60;;
2147;SDS011;1080;48.724;9.104;2022-10-31T14:11:54;10.37;;;6.47;;
2147;SDS011;1080;48.724;9.104;2022-10-31T14:14:26;7.63;;;4.90;;
2147;SDS011;1080;48.724;9.104;2022-10-31T14:17:00;7.00;;;5.00;;
2147;SDS011;1080;48.724;9.104;2022-10-31T14:19:28;8.27;;;4.97;;
2147;SDS011;1080;48.724;9.104;2022-10-31T14:21:55;9.33;;;6.27;;
2147;SDS011;1080;48.724;9.104;2022-10-31T14:24:33;11.30;;;6.10;;
2147;SDS011;1080;48.724;9.104;2022-10-31T14:27:03;12.27;;;5.60;;
2147;SDS011;1080;48.724;9.104;2022-10-31T14:29:52;9.47;;;6.10;;
2147;SDS011;1080;48.724;9.104;2022-10-31T14:32:20;12.20;;;5.60;;
2147;SDS011;1080;48.724;9.104;2022-10-31T14:34:52;7.33;;;5.30;;
2147;SDS011;1080;48.724;9.104;2022-10-31T14:37:26;11.63;;;6.00;;
2147;SDS011;1080;48.724;9.104;2022-10-31T14:46:05;12.77;;;8.00;;
2147;SDS011;1080;48.724;9.104;2022-10-31T14:48:41;8.73;;;7.80;;
2147;SDS011;1080;48.724;9.104;2022-10-31T14:51:24;9.23;;;6.87;;
2147;SDS011;1080;48.724;9.104;2022-10-31T14:53:56;14.10;;;7.13;;
2147;SDS011;1080;48.724;9.104;2022-10-31T14:56:24;15.40;;;7.30;;
2147;SDS011;1080;48.724;9.104;2022-10-31T14:58:53;13.93;;;6.27;;
2147;SDS011;1080;48.724;9.104;2022-10-31T15:01:25;10.30;;;5.90;;
2147;SDS011;1080;48.724;9.104;2022-10-31T15:03:53;10.33;;;7.13;;
2147;SDS011;1080;48.724;9.104;2022-10-31T15:06:23;9.57;;;5.20;;
2147;SDS011;1080;48.724;9.104;2022-10-31T15:08:51;10.90;;;6.10;;
2147;SDS011;1080;48.724;9.104;2022-10-31T15:11:20;13.60;;;6.67;;
2147;SDS011;1080;48.724;9.104;2022-10-31T15:13:48;10.37;;;6.23;;
2147;SDS011;1080;48.724;9.104;2022-10-31T15:16:17;9.13;;;5.03;;
2147;SDS011;1080;48.724;9.104;2022-10-31T15:18:49;12.93;;;5.53;;
2147;SDS011;1080;48.724;9.104;2022-10-31T15:21:19;7.93;;;5.50;;
2147;SDS011;1080;48.724;9.104;2022-10-31T15:23:47;10.47;;;5.30;;
2147;SDS011;1080;48.724;9.104;2022-10-31T15:26:18;8.60;;;5.73;;
2147;SDS011;1080;48.724;9.104;2022-10-31T15:28:46;9.03;;;4.97;;
2147;SDS011;1080;48.724;9.104;2022-10-31T15:31:13;10.63;;;5.20;;
2147;SDS011;1080;48.724;9.104;2022-10-31T15:33:44;7.73;;;4.80;;
2147;SDS011;1080;48.724;9.104;2022-10-31T15:36:19;9.90;;;6.00;;
2147;SDS011;1080;48.724;9.104;2022-10-31T15:38:47;9.60;;;6.37;;
2147;SDS011;1080;48.724;9.104;2022-10-31T15:41:22;9.57;;;6.23;;
2147;SDS011;1080;48.724;9.104;2022-10-31T15:43:54;10.47;;;6.10;;
2147;SDS011;1080;48.724;9.104;2022-10-31T15:46:25;7.47;;;5.50;;
2147;SDS011;1080;48.724;9.104;2022-10-31T15:48:52;10.80;;;5.60;;